Time;durP1;ratioP1;P1;durP2;ratioP2;P2;SDS_P1;SDS_P2;PMS_P1;PMS_P2;Temp;Humidity;BMP_temperature;BMP_pressure;BME280_temperature;BME280_humidity;BME280_pressure;Samples;Min_cycle;Max_cycle;Signal;HPM_P1;HPM_P2
2023/01/07 00:00:54;;;;;;;0.50;0.40;;;;;;;;;;5098315;28;20203;-62
2023/01/07 00:03:22;;;;;;;0.55;0.40;;;;;;;;;;5098747;28;20216;-62
2023/01/07 00:05:50;;;;;;;0.50;0.50;;;;;;;;;;5098021;28;20211;-62
2023/01/07 00:08:17;;;;;;;0.50;0.50;;;;;;;;;;5098467;28;20204;-63
2023/01/07 00:10:45;;;;;;;0.30;0.30;;;;;;;;;;5098719;28;20227;-63
2023/01/07 00:13:14;;;;;;;0.40;0.40;;;;;;;;;;5098527;28;20214;-62
2023/01/07 00:15:42;;;;;;;0.50;0.50;;;;;;;;;;5098643;28;20207;-62
2023/01/07 00:18:10;;;;;;;0.50;0.40;;;;;;;;;;5109954;28;20291;-63
2023/01/07 00:20:37;;;;;;;0.40;0.40;;;;;;;;;;5117767;28;20574;-62
2023/01/07 00:23:05;;;;;;;0.30;0.30;;;;;;;;;;5118929;28;20256;-62
2023/01/07 00:25:33;;;;;;;0.40;0.40;;;;;;;;;;5118197;28;20353;-62
2023/01/07 00:28:01;;;;;;;0.30;0.30;;;;;;;;;;5118500;28;20203;-62
2023/01/07 00:30:30;;;;;;;0.40;0.40;;;;;;;;;;5118424;28;20284;-62
2023/01/07 00:33:03;;;;;;;0.35;0.35;;;;;;;;;;5118683;28;20242;-62
2023/01/07 00:35:32;;;;;;;0.38;0.38;;;;;;;;;;5118876;28;20246;-62
2023/01/07 00:37:59;;;;;;;0.57;0.40;;;;;;;;;;5118422;28;20209;-62
2023/01/07 00:40:27;;;;;;;0.70;0.45;;;;;;;;;;5118897;28;20199;-62
2023/01/07 00:42:54;;;;;;;0.30;0.30;;;;;;;;;;5118449;28;20194;-62
2023/01/07 00:45:22;;;;;;;0.40;0.40;;;;;;;;;;5118630;28;20229;-62
2023/01/07 00:47:52;;;;;;;0.40;0.40;;;;;;;;;;5117610;28;20569;-62
2023/01/07 00:50:20;;;;;;;0.43;0.38;;;;;;;;;;5118269;28;20262;-62
2023/01/07 00:52:48;;;;;;;0.50;0.50;;;;;;;;;;5118545;28;20202;-62
2023/01/07 00:55:16;;;;;;;0.30;0.30;;;;;;;;;;5118213;28;20211;-62
2023/01/07 00:57:43;;;;;;;0.30;0.30;;;;;;;;;;5118216;28;20230;-62
2023/01/07 01:00:12;;;;;;;0.50;0.50;;;;;;;;;;5118013;28;20207;-62
2023/01/07 01:02:40;;;;;;;0.95;0.40;;;;;;;;;;5118125;28;20210;-62
2023/01/07 01:05:10;;;;;;;0.40;0.40;;;;;;;;;;5118155;28;20211;-62
2023/01/07 01:07:38;;;;;;;0.43;0.43;;;;;;;;;;5118041;28;20202;-62
2023/01/07 01:10:07;;;;;;;0.70;0.50;;;;;;;;;;5117302;28;20223;-62
2023/01/07 01:12:35;;;;;;;0.40;0.40;;;;;;;;;;5118084;28;20257;-62
2023/01/07 01:15:03;;;;;;;0.47;0.40;;;;;;;;;;5118182;28;20207;-62
2023/01/07 01:17:30;;;;;;;0.50;0.50;;;;;;;;;;5117967;28;20202;-64
2023/01/07 01:19:58;;;;;;;0.40;0.40;;;;;;;;;;5118025;28;20205;-62
2023/01/07 01:22:28;;;;;;;0.50;0.50;;;;;;;;;;5118110;28;20579;-62
2023/01/07 01:24:56;;;;;;;0.50;0.50;;;;;;;;;;5117985;28;20258;-62
2023/01/07 01:27:23;;;;;;;0.38;0.38;;;;;;;;;;5117866;28;20616;-62
2023/01/07 01:29:51;;;;;;;0.40;0.40;;;;;;;;;;5117459;28;20757;-62
2023/01/07 01:32:19;;;;;;;0.75;0.30;;;;;;;;;;5117390;28;20578;-62
2023/01/07 01:34:46;;;;;;;0.40;0.40;;;;;;;;;;5118033;28;20203;-62
2023/01/07 01:37:14;;;;;;;0.50;0.50;;;;;;;;;;5117434;28;20602;-62
2023/01/07 01:39:43;;;;;;;0.40;0.40;;;;;;;;;;5117980;28;20543;-63
2023/01/07 01:42:13;;;;;;;0.30;0.30;;;;;;;;;;5118009;28;20198;-62
2023/01/07 01:44:44;;;;;;;0.30;0.30;;;;;;;;;;5118181;28;20239;-62
2023/01/07 01:47:19;;;;;;;0.68;0.30;;;;;;;;;;5117057;28;20203;-62
2023/01/07 01:49:50;;;;;;;0.40;0.40;;;;;;;;;;5117405;28;20321;-62
2023/01/07 01:52:18;;;;;;;0.40;0.40;;;;;;;;;;5117916;28;20283;-62
2023/01/07 01:54:50;;;;;;;0.40;0.40;;;;;;;;;;5117860;28;20290;-62
2023/01/07 01:57:18;;;;;;;0.30;0.30;;;;;;;;;;5117437;28;20203;-63
2023/01/07 01:59:49;;;;;;;0.40;0.32;;;;;;;;;;5117334;28;20230;-62
2023/01/07 02:02:18;;;;;;;0.40;0.40;;;;;;;;;;5117313;28;20203;-62
2023/01/07 02:04:46;;;;;;;0.50;0.32;;;;;;;;;;5117326;28;20233;-63
2023/01/07 02:07:16;;;;;;;0.30;0.30;;;;;;;;;;5117486;28;20249;-62
2023/01/07 02:09:43;;;;;;;0.88;0.40;;;;;;;;;;5117134;28;20414;-62
2023/01/07 02:12:18;;;;;;;0.50;0.50;;;;;;;;;;5117140;28;20268;-62
2023/01/07 02:14:52;;;;;;;0.38;0.38;;;;;;;;;;5118800;28;20248;-62
2023/01/07 02:17:27;;;;;;;0.35;0.35;;;;;;;;;;5121352;28;20489;-62
2023/01/07 02:20:09;;;;;;;0.82;0.50;;;;;;;;;;5121299;28;20214;-62
2023/01/07 02:22:59;;;;;;;0.45;0.45;;;;;;;;;;5118808;28;20203;-62
2023/01/07 02:25:44;;;;;;;0.40;0.40;;;;;;;;;;5121388;28;20209;-62
2023/01/07 02:28:30;;;;;;;0.30;0.30;;;;;;;;;;5121409;28;20595;-62
2023/01/07 02:31:11;;;;;;;0.32;0.32;;;;;;;;;;5121129;28;20559;-62
2023/01/07 02:33:43;;;;;;;0.45;0.45;;;;;;;;;;5121194;28;20210;-62
2023/01/07 02:36:24;;;;;;;0.32;0.32;;;;;;;;;;5121309;28;20210;-62
2023/01/07 02:38:57;;;;;;;0.30;0.30;;;;;;;;;;5120915;28;20246;-62
2023/01/07 02:41:27;;;;;;;0.30;0.30;;;;;;;;;;5121122;28;20561;-64
2023/01/07 02:44:01;;;;;;;0.30;0.30;;;;;;;;;;5120678;28;20267;-62
2023/01/07 02:46:32;;;;;;;0.40;0.30;;;;;;;;;;5120824;28;20242;-62
2023/01/07 02:49:01;;;;;;;0.40;0.40;;;;;;;;;;5120614;28;20354;-63
2023/01/07 02:51:33;;;;;;;0.35;0.35;;;;;;;;;;5120963;28;20223;-62
2023/01/07 02:54:01;;;;;;;0.30;0.30;;;;;;;;;;5121270;28;20287;-62
2023/01/07 02:56:32;;;;;;;0.30;0.30;;;;;;;;;;5120563;28;20202;-62
2023/01/07 02:59:15;;;;;;;0.40;0.40;;;;;;;;;;5120384;28;20203;-62
2023/01/07 03:01:50;;;;;;;0.30;0.30;;;;;;;;;;5120720;28;20264;-62
2023/01/07 03:04:29;;;;;;;0.32;0.32;;;;;;;;;;5120424;28;20285;-62
2023/01/07 03:07:05;;;;;;;0.40;0.40;;;;;;;;;;5120339;28;20234;-62
2023/01/07 03:09:36;;;;;;;0.30;0.30;;;;;;;;;;5120550;28;20203;-62
2023/01/07 03:12:08;;;;;;;0.30;0.22;;;;;;;;;;5121029;28;20480;-62
2023/01/07 03:14:39;;;;;;;0.30;0.30;;;;;;;;;;5120588;28;20203;-63
2023/01/07 03:17:07;;;;;;;0.30;0.30;;;;;;;;;;5120168;28;20213;-62
2023/01/07 03:19:39;;;;;;;0.30;0.30;;;;;;;;;;5120400;28;20613;-62
2023/01/07 03:22:09;;;;;;;0.38;0.38;;;;;;;;;;5120572;28;20283;-62
2023/01/07 03:24:37;;;;;;;0.30;0.30;;;;;;;;;;5120228;28;20228;-62
2023/01/07 03:27:06;;;;;;;0.32;0.32;;;;;;;;;;5118762;28;20246;-62
2023/01/07 03:29:35;;;;;;;0.20;0.20;;;;;;;;;;5119941;28;20246;-62
2023/01/07 03:32:05;;;;;;;0.30;0.30;;;;;;;;;;5119750;28;20203;-62
2023/01/07 03:34:33;;;;;;;0.30;0.30;;;;;;;;;;5120302;28;20214;-62
2023/01/07 03:37:04;;;;;;;0.30;0.30;;;;;;;;;;5119258;28;20501;-63
2023/01/07 03:39:34;;;;;;;0.40;0.40;;;;;;;;;;5119989;28;20575;-62
2023/01/07 03:44:59;;;;;;;0.40;0.40;;;;;;;;;;5060337;28;20191;-62
2023/01/07 03:47:28;;;;;;;0.35;0.35;;;;;;;;;;5119351;28;20239;-62
2023/01/07 03:49:56;;;;;;;0.30;0.30;;;;;;;;;;5119658;28;20305;-62
2023/01/07 03:52:25;;;;;;;0.30;0.30;;;;;;;;;;5119663;28;20214;-62
2023/01/07 03:54:53;;;;;;;0.22;0.22;;;;;;;;;;5119769;28;20626;-62
2023/01/07 03:57:21;;;;;;;0.30;0.30;;;;;;;;;;5119745;28;20295;-62
2023/01/07 03:59:49;;;;;;;0.28;0.28;;;;;;;;;;5119427;28;20203;-63
2023/01/07 04:02:16;;;;;;;0.30;0.30;;;;;;;;;;5119776;28;20553;-62
2023/01/07 04:04:44;;;;;;;0.40;0.40;;;;;;;;;;5119311;28;20205;-62
2023/01/07 04:07:12;;;;;;;0.30;0.30;;;;;;;;;;5119552;28;20265;-62
2023/01/07 04:09:41;;;;;;;0.45;0.40;;;;;;;;;;5119509;28;20222;-62
2023/01/07 04:12:09;;;;;;;0.32;0.32;;;;;;;;;;5118777;28;20227;-62
2023/01/07 04:14:37;;;;;;;0.40;0.40;;;;;;;;;;5119509;28;20306;-62
2023/01/07 04:17:04;;;;;;;0.30;0.30;;;;;;;;;;5118924;28;20203;-62
2023/01/07 04:19:33;;;;;;;0.40;0.40;;;;;;;;;;5119055;28;20527;-63
2023/01/07 04:22:00;;;;;;;0.38;0.38;;;;;;;;;;5118910;28;20302;-62
2023/01/07 04:24:28;;;;;;;0.38;0.30;;;;;;;;;;5118915;28;20210;-62
2023/01/07 04:26:57;;;;;;;0.30;0.30;;;;;;;;;;5119074;28;20218;-62
2023/01/07 04:29:25;;;;;;;0.30;0.30;;;;;;;;;;5118944;28;20203;-62
2023/01/07 04:31:52;;;;;;;0.30;0.30;;;;;;;;;;5118671;28;20607;-62
2023/01/07 04:34:20;;;;;;;0.32;0.32;;;;;;;;;;5119027;28;20229;-62
2023/01/07 04:36:48;;;;;;;0.30;0.30;;;;;;;;;;5118511;28;20225;-62
2023/01/07 04:39:16;;;;;;;0.30;0.30;;;;;;;;;;5118016;28;20195;-62
2023/01/07 04:41:44;;;;;;;0.40;0.40;;;;;;;;;;5117704;28;20207;-62
2023/01/07 04:44:16;;;;;;;0.28;0.28;;;;;;;;;;5118327;28;20214;-62
2023/01/07 04:46:44;;;;;;;0.30;0.30;;;;;;;;;;5118723;28;20234;-62
2023/01/07 04:49:11;;;;;;;0.30;0.30;;;;;;;;;;5118630;28;20241;-62
2023/01/07 04:51:39;;;;;;;0.32;0.32;;;;;;;;;;5117983;28;20262;-62
2023/01/07 04:54:07;;;;;;;0.30;0.22;;;;;;;;;;5117599;28;20211;-62
2023/01/07 04:56:34;;;;;;;0.32;0.32;;;;;;;;;;5118702;28;20206;-62
2023/01/07 04:59:02;;;;;;;0.47;0.30;;;;;;;;;;5118624;28;20268;-62
2023/01/07 05:01:31;;;;;;;0.20;0.20;;;;;;;;;;5118371;28;20253;-62
2023/01/07 05:04:00;;;;;;;0.28;0.28;;;;;;;;;;5118406;28;20212;-62
2023/01/07 05:06:27;;;;;;;0.30;0.30;;;;;;;;;;5118106;28;20210;-62
2023/01/07 05:08:54;;;;;;;0.30;0.30;;;;;;;;;;5118754;28;20203;-62
2023/01/07 05:11:22;;;;;;;0.30;0.30;;;;;;;;;;5118043;28;20313;-62
2023/01/07 05:13:49;;;;;;;0.32;0.32;;;;;;;;;;5118230;28;20484;-63
2023/01/07 05:16:17;;;;;;;0.28;0.28;;;;;;;;;;5118190;28;20285;-62
2023/01/07 05:18:46;;;;;;;0.20;0.20;;;;;;;;;;5118166;28;20856;-63
2023/01/07 05:21:13;;;;;;;0.40;0.40;;;;;;;;;;5118279;28;20205;-62
2023/01/07 05:23:41;;;;;;;0.40;0.40;;;;;;;;;;5118106;28;20298;-62
2023/01/07 05:26:08;;;;;;;0.30;0.28;;;;;;;;;;5118006;28;20241;-62
2023/01/07 05:28:36;;;;;;;0.30;0.30;;;;;;;;;;5118097;28;20310;-62
2023/01/07 05:31:03;;;;;;;0.30;0.30;;;;;;;;;;5117767;28;20265;-62
2023/01/07 05:33:31;;;;;;;0.30;0.30;;;;;;;;;;5117804;28;20253;-62
2023/01/07 05:36:00;;;;;;;0.30;0.30;;;;;;;;;;5117553;28;20564;-62
2023/01/07 05:38:27;;;;;;;0.30;0.30;;;;;;;;;;5117902;28;20289;-63
2023/01/07 05:40:56;;;;;;;0.30;0.30;;;;;;;;;;5118121;28;20199;-62
2023/01/07 05:43:23;;;;;;;0.35;0.35;;;;;;;;;;5117817;28;20236;-62
2023/01/07 05:45:51;;;;;;;0.30;0.30;;;;;;;;;;5118376;28;20242;-62
2023/01/07 05:48:18;;;;;;;0.30;0.30;;;;;;;;;;5113954;28;20234;-62
2023/01/07 05:50:45;;;;;;;0.30;0.30;;;;;;;;;;5101081;28;20228;-62
2023/01/07 05:53:14;;;;;;;0.20;0.20;;;;;;;;;;5101597;28;20214;-62
2023/01/07 05:55:42;;;;;;;0.28;0.28;;;;;;;;;;5101730;28;20203;-64
2023/01/07 05:58:09;;;;;;;0.32;0.32;;;;;;;;;;5101860;28;20214;-62
2023/01/07 06:00:37;;;;;;;0.25;0.20;;;;;;;;;;5101360;28;20303;-62
2023/01/07 06:03:04;;;;;;;0.45;0.30;;;;;;;;;;5100890;28;20286;-63
2023/01/07 06:05:32;;;;;;;0.32;0.32;;;;;;;;;;5101405;28;20218;-62
2023/01/07 06:07:59;;;;;;;0.20;0.20;;;;;;;;;;5101347;28;20298;-62
2023/01/07 06:10:28;;;;;;;0.30;0.30;;;;;;;;;;5101467;28;20261;-62
2023/01/07 06:12:56;;;;;;;0.22;0.22;;;;;;;;;;5101290;28;20310;-62
2023/01/07 06:15:23;;;;;;;0.30;0.30;;;;;;;;;;5101075;28;20203;-62
2023/01/07 06:17:50;;;;;;;0.30;0.30;;;;;;;;;;5101145;28;20286;-62
2023/01/07 06:20:18;;;;;;;0.30;0.30;;;;;;;;;;5101347;28;20210;-62
2023/01/07 06:22:45;;;;;;;0.30;0.30;;;;;;;;;;5101103;28;20294;-62
2023/01/07 06:25:13;;;;;;;0.30;0.30;;;;;;;;;;5101041;28;20542;-62
2023/01/07 06:27:42;;;;;;;0.20;0.20;;;;;;;;;;5120894;28;20613;-62
2023/01/07 06:30:10;;;;;;;0.30;0.30;;;;;;;;;;5120756;28;20289;-63
2023/01/07 06:32:38;;;;;;;0.30;0.30;;;;;;;;;;5121192;28;20602;-62
2023/01/07 06:35:07;;;;;;;0.30;0.30;;;;;;;;;;5116281;28;20210;-62
2023/01/07 06:37:34;;;;;;;0.35;0.35;;;;;;;;;;5100888;28;20196;-62
2023/01/07 06:40:02;;;;;;;0.20;0.20;;;;;;;;;;5100642;28;20296;-68
2023/01/07 06:42:29;;;;;;;0.80;0.20;;;;;;;;;;5100905;28;20451;-62
2023/01/07 06:44:58;;;;;;;0.20;0.20;;;;;;;;;;5100424;28;20214;-62
2023/01/07 06:47:25;;;;;;;0.30;0.30;;;;;;;;;;5100232;28;20318;-62
2023/01/07 06:49:53;;;;;;;0.20;0.20;;;;;;;;;;5100507;28;20211;-63
2023/01/07 06:52:20;;;;;;;0.20;0.20;;;;;;;;;;5099952;28;20608;-62
2023/01/07 06:54:48;;;;;;;0.30;0.30;;;;;;;;;;5099679;28;20295;-62
2023/01/07 06:57:15;;;;;;;0.28;0.28;;;;;;;;;;5099647;28;20290;-63
2023/01/07 06:59:43;;;;;;;0.20;0.20;;;;;;;;;;5100309;28;20200;-62
2023/01/07 07:02:17;;;;;;;0.20;0.20;;;;;;;;;;5100115;28;20214;-62
2023/01/07 07:04:45;;;;;;;0.20;0.20;;;;;;;;;;5099700;28;20298;-64
2023/01/07 07:07:12;;;;;;;0.30;0.30;;;;;;;;;;5099365;28;20210;-62
2023/01/07 07:09:40;;;;;;;0.30;0.30;;;;;;;;;;5100053;28;20202;-62
2023/01/07 07:12:07;;;;;;;0.28;0.28;;;;;;;;;;5099685;28;20306;-62
2023/01/07 07:14:35;;;;;;;0.25;0.25;;;;;;;;;;5099608;28;20204;-62
2023/01/07 07:17:02;;;;;;;0.20;0.20;;;;;;;;;;5099990;28;20206;-62
2023/01/07 07:19:31;;;;;;;0.20;0.20;;;;;;;;;;5099655;28;20295;-62
2023/01/07 07:21:59;;;;;;;0.20;0.20;;;;;;;;;;5099707;28;20239;-62
2023/01/07 07:24:26;;;;;;;0.20;0.20;;;;;;;;;;5099885;28;20211;-62
2023/01/07 07:26:54;;;;;;;0.20;0.20;;;;;;;;;;5099469;28;20206;-62
2023/01/07 07:29:21;;;;;;;0.30;0.30;;;;;;;;;;5099229;28;20580;-62
2023/01/07 07:31:48;;;;;;;0.45;0.30;;;;;;;;;;5099892;28;20500;-62
2023/01/07 07:34:16;;;;;;;0.30;0.30;;;;;;;;;;5099257;28;20516;-62
2023/01/07 07:36:44;;;;;;;0.20;0.20;;;;;;;;;;5098989;28;20287;-62
2023/01/07 07:39:12;;;;;;;0.17;0.17;;;;;;;;;;5099560;28;20204;-62
2023/01/07 07:41:40;;;;;;;0.20;0.20;;;;;;;;;;5099225;28;20270;-63
2023/01/07 07:44:07;;;;;;;0.20;0.20;;;;;;;;;;5099274;28;20203;-62
2023/01/07 07:46:34;;;;;;;0.30;0.30;;;;;;;;;;5108338;28;20289;-62
2023/01/07 07:49:02;;;;;;;0.20;0.20;;;;;;;;;;5119512;28;20329;-62
2023/01/07 07:51:30;;;;;;;0.20;0.20;;;;;;;;;;5119672;28;20326;-62
2023/01/07 07:53:59;;;;;;;0.22;0.22;;;;;;;;;;5118827;28;20256;-62
2023/01/07 07:56:26;;;;;;;0.20;0.20;;;;;;;;;;5109928;28;20207;-62
2023/01/07 07:58:54;;;;;;;0.20;0.20;;;;;;;;;;5098293;28;20788;-62
2023/01/07 08:01:21;;;;;;;0.20;0.20;;;;;;;;;;5098313;28;20200;-62
2023/01/07 08:03:49;;;;;;;0.20;0.20;;;;;;;;;;5099073;28;20774;-62
2023/01/07 08:06:16;;;;;;;0.20;0.20;;;;;;;;;;5098194;28;20242;-62
2023/01/07 08:08:43;;;;;;;0.55;0.30;;;;;;;;;;5098661;28;20214;-62
2023/01/07 08:11:12;;;;;;;1.17;0.20;;;;;;;;;;5097830;28;20212;-62
2023/01/07 08:13:40;;;;;;;0.63;0.38;;;;;;;;;;5096829;28;20298;-62
2023/01/07 08:16:08;;;;;;;0.60;0.20;;;;;;;;;;5097435;28;20278;-62
2023/01/07 08:18:35;;;;;;;0.40;0.30;;;;;;;;;;5097771;28;20638;-62
2023/01/07 08:21:02;;;;;;;0.20;0.20;;;;;;;;;;5098498;28;20330;-63
2023/01/07 08:23:30;;;;;;;0.30;0.30;;;;;;;;;;5098141;28;20587;-62
2023/01/07 08:26:01;;;;;;;1.05;0.30;;;;;;;;;;5098002;28;20196;-62
2023/01/07 08:28:30;;;;;;;1.00;0.20;;;;;;;;;;5097192;28;20207;-62
2023/01/07 08:30:58;;;;;;;0.85;0.20;;;;;;;;;;5097481;28;20214;-62
2023/01/07 08:33:25;;;;;;;0.70;0.50;;;;;;;;;;5097541;28;20497;-62
2023/01/07 08:35:52;;;;;;;0.30;0.30;;;;;;;;;;5097028;28;20496;-62
2023/01/07 08:38:20;;;;;;;0.77;0.40;;;;;;;;;;5097297;28;20237;-62
2023/01/07 08:40:47;;;;;;;0.77;0.35;;;;;;;;;;5096926;28;20299;-62
2023/01/07 08:43:15;;;;;;;2.38;0.30;;;;;;;;;;5114784;28;20195;-62
2023/01/07 08:45:48;;;;;;;1.92;0.40;;;;;;;;;;5116418;28;20286;-62
2023/01/07 08:48:16;;;;;;;0.57;0.28;;;;;;;;;;5096311;28;20235;-62
2023/01/07 08:50:43;;;;;;;1.88;0.30;;;;;;;;;;5096898;28;20717;-62
2023/01/07 08:53:11;;;;;;;1.40;0.60;;;;;;;;;;5096938;28;20330;-62
2023/01/07 08:55:38;;;;;;;1.38;0.30;;;;;;;;;;5096930;28;20204;-63
2023/01/07 08:58:06;;;;;;;2.03;0.25;;;;;;;;;;5096501;28;20192;-62
2023/01/07 09:00:33;;;;;;;2.60;0.30;;;;;;;;;;5096855;28;20205;-63
2023/01/07 09:03:02;;;;;;;1.95;0.60;;;;;;;;;;5096483;28;20239;-63
2023/01/07 09:05:30;;;;;;;2.05;0.57;;;;;;;;;;5097277;28;20204;-62
2023/01/07 09:07:57;;;;;;;1.52;0.40;;;;;;;;;;5096498;28;20204;-62
2023/01/07 09:10:25;;;;;;;1.67;0.35;;;;;;;;;;5096465;28;20250;-62
2023/01/07 09:12:52;;;;;;;0.75;0.40;;;;;;;;;;5097087;28;20318;-63
2023/01/07 09:15:20;;;;;;;1.85;0.40;;;;;;;;;;5096533;28;20218;-63
2023/01/07 09:17:47;;;;;;;0.95;0.40;;;;;;;;;;5095637;28;20294;-63
2023/01/07 09:20:16;;;;;;;2.55;0.55;;;;;;;;;;5096467;28;20596;-62
2023/01/07 09:22:44;;;;;;;0.85;0.50;;;;;;;;;;5096383;28;20294;-62
2023/01/07 09:25:11;;;;;;;1.75;0.52;;;;;;;;;;5095902;28;20690;-62
2023/01/07 09:27:39;;;;;;;1.10;0.38;;;;;;;;;;5095806;28;20706;-62
2023/01/07 09:30:08;;;;;;;1.08;0.30;;;;;;;;;;5096192;28;20554;-62
2023/01/07 09:32:35;;;;;;;1.00;0.45;;;;;;;;;;5096691;28;20544;-63
2023/01/07 09:35:03;;;;;;;0.47;0.35;;;;;;;;;;5096329;28;20214;-63
2023/01/07 09:37:32;;;;;;;0.57;0.28;;;;;;;;;;5095854;28;20195;-63
2023/01/07 09:40:00;;;;;;;0.73;0.40;;;;;;;;;;5096306;28;20254;-63
2023/01/07 09:42:30;;;;;;;0.40;0.35;;;;;;;;;;5095900;28;20204;-63
2023/01/07 09:45:03;;;;;;;1.55;0.40;;;;;;;;;;5096070;28;20334;-64
2023/01/07 09:47:35;;;;;;;0.73;0.50;;;;;;;;;;5100229;28;20721;-62
2023/01/07 09:50:06;;;;;;;0.52;0.30;;;;;;;;;;5116244;28;20482;-62
2023/01/07 09:52:37;;;;;;;1.27;0.38;;;;;;;;;;5115497;28;20504;-62
2023/01/07 09:55:08;;;;;;;0.47;0.30;;;;;;;;;;5115017;28;20246;-63
2023/01/07 09:57:36;;;;;;;0.40;0.30;;;;;;;;;;5108958;28;20191;-63
2023/01/07 10:00:04;;;;;;;0.68;0.40;;;;;;;;;;5116083;28;20234;-62
2023/01/07 10:02:37;;;;;;;0.50;0.45;;;;;;;;;;5115838;28;20210;-62
2023/01/07 10:05:14;;;;;;;0.70;0.40;;;;;;;;;;5116402;28;20286;-62
2023/01/07 10:07:46;;;;;;;0.55;0.50;;;;;;;;;;5106339;28;20650;-62
2023/01/07 10:10:18;;;;;;;0.30;0.30;;;;;;;;;;5095810;28;20465;-63
2023/01/07 10:12:48;;;;;;;0.40;0.40;;;;;;;;;;5095322;28;20223;-63
2023/01/07 10:15:19;;;;;;;0.60;0.40;;;;;;;;;;5095320;28;20234;-62
2023/01/07 10:18:08;;;;;;;0.88;0.40;;;;;;;;;;5105469;28;20301;-62
2023/01/07 10:20:38;;;;;;;1.35;0.38;;;;;;;;;;5082617;28;20237;-62
2023/01/07 10:23:10;;;;;;;0.60;0.40;;;;;;;;;;5116220;28;20195;-62
2023/01/07 10:25:41;;;;;;;0.55;0.30;;;;;;;;;;5115627;28;20238;-62
2023/01/07 10:28:11;;;;;;;0.30;0.30;;;;;;;;;;5102549;28;20207;-62
2023/01/07 10:30:41;;;;;;;0.30;0.25;;;;;;;;;;5095244;28;20204;-63
2023/01/07 10:33:16;;;;;;;0.30;0.30;;;;;;;;;;5095457;28;20368;-62
2023/01/07 10:35:44;;;;;;;0.88;0.40;;;;;;;;;;5096972;28;20267;-63
2023/01/07 10:38:15;;;;;;;0.77;0.50;;;;;;;;;;5111789;28;20203;-63
2023/01/07 10:40:44;;;;;;;0.40;0.40;;;;;;;;;;5119235;28;20492;-63
2023/01/07 10:43:19;;;;;;;0.75;0.30;;;;;;;;;;5119838;28;20202;-62
2023/01/07 10:45:54;;;;;;;0.90;0.40;;;;;;;;;;5119542;28;20344;-62
2023/01/07 10:48:32;;;;;;;0.82;0.30;;;;;;;;;;5102219;28;20322;-62
2023/01/07 10:51:09;;;;;;;0.93;0.38;;;;;;;;;;5098514;28;20266;-62
2023/01/07 10:53:45;;;;;;;0.85;0.60;;;;;;;;;;5098136;28;20223;-62
2023/01/07 10:56:20;;;;;;;0.60;0.43;;;;;;;;;;5098537;28;20301;-62
2023/01/07 10:58:48;;;;;;;0.30;0.30;;;;;;;;;;5097952;28;20206;-62
2023/01/07 11:01:19;;;;;;;1.38;0.28;;;;;;;;;;5098078;28;20210;-62
2023/01/07 11:03:49;;;;;;;0.60;0.40;;;;;;;;;;5098372;28;20245;-62
2023/01/07 11:06:18;;;;;;;0.40;0.40;;;;;;;;;;5098560;28;20298;-62
2023/01/07 11:08:48;;;;;;;0.40;0.40;;;;;;;;;;5098034;28;20213;-64
2023/01/07 11:11:17;;;;;;;0.35;0.30;;;;;;;;;;5097338;28;20211;-62
2023/01/07 11:13:51;;;;;;;0.40;0.40;;;;;;;;;;5098298;28;20814;-62
2023/01/07 11:16:19;;;;;;;0.60;0.40;;;;;;;;;;5098671;28;20302;-63
2023/01/07 11:18:51;;;;;;;1.60;0.45;;;;;;;;;;5098575;28;20672;-63
2023/01/07 11:21:31;;;;;;;1.27;0.47;;;;;;;;;;5099044;28;20670;-63
2023/01/07 11:24:01;;;;;;;0.50;0.40;;;;;;;;;;5097907;28;20223;-63
2023/01/07 11:26:30;;;;;;;0.82;0.52;;;;;;;;;;5098962;28;20541;-62
2023/01/07 11:28:59;;;;;;;0.43;0.43;;;;;;;;;;5098528;28;20723;-62
2023/01/07 11:31:42;;;;;;;1.08;0.50;;;;;;;;;;5098097;28;20207;-62
2023/01/07 11:34:17;;;;;;;0.50;0.30;;;;;;;;;;5098024;28;20237;-62
2023/01/07 11:36:44;;;;;;;0.45;0.40;;;;;;;;;;5097540;28;20203;-62
2023/01/07 11:39:20;;;;;;;0.93;0.30;;;;;;;;;;5097909;28;20306;-63
2023/01/07 11:41:55;;;;;;;1.30;0.57;;;;;;;;;;5097376;28;20211;-62
2023/01/07 11:44:23;;;;;;;1.30;0.50;;;;;;;;;;5096579;28;20203;-63
2023/01/07 11:46:51;;;;;;;0.60;0.60;;;;;;;;;;5096395;28;20208;-63
2023/01/07 11:49:23;;;;;;;0.40;0.40;;;;;;;;;;5097883;28;20241;-62
2023/01/07 11:51:51;;;;;;;0.50;0.50;;;;;;;;;;5096997;28;20210;-63
2023/01/07 11:54:21;;;;;;;1.33;0.40;;;;;;;;;;5089873;22;20549;-63
2023/01/07 11:56:49;;;;;;;0.60;0.40;;;;;;;;;;5075016;28;20201;-63
2023/01/07 11:59:24;;;;;;;0.95;0.38;;;;;;;;;;5075091;28;20200;-63
2023/01/07 12:01:53;;;;;;;0.85;0.40;;;;;;;;;;5074717;28;20307;-64
2023/01/07 12:04:22;;;;;;;1.10;0.63;;;;;;;;;;5074720;28;20603;-64
2023/01/07 12:06:50;;;;;;;0.50;0.50;;;;;;;;;;5074851;28;20207;-64
2023/01/07 12:09:23;;;;;;;2.45;0.60;;;;;;;;;;5074866;28;20258;-63
2023/01/07 12:11:52;;;;;;;0.47;0.47;;;;;;;;;;5073311;28;20203;-63
2023/01/07 12:14:25;;;;;;;0.50;0.50;;;;;;;;;;5074504;28;20616;-63
2023/01/07 12:16:53;;;;;;;0.73;0.60;;;;;;;;;;5074364;28;20200;-63
2023/01/07 12:19:30;;;;;;;0.60;0.60;;;;;;;;;;5074973;28;20214;-63
2023/01/07 12:22:04;;;;;;;0.70;0.55;;;;;;;;;;5075856;28;20200;-63
2023/01/07 12:24:52;;;;;;;0.82;0.50;;;;;;;;;;5074816;28;20211;-64
2023/01/07 12:27:27;;;;;;;1.10;0.73;;;;;;;;;;5067684;28;20279;-64
2023/01/07 12:30:02;;;;;;;0.50;0.50;;;;;;;;;;5074161;28;20294;-63
2023/01/07 12:32:34;;;;;;;1.48;0.57;;;;;;;;;;5074699;28;20208;-63
2023/01/07 12:35:03;;;;;;;0.70;0.60;;;;;;;;;;5074370;28;20455;-64
2023/01/07 12:37:32;;;;;;;0.95;0.40;;;;;;;;;;5073136;28;20370;-64
2023/01/07 12:40:05;;;;;;;0.90;0.60;;;;;;;;;;5073520;28;20211;-63
2023/01/07 12:42:35;;;;;;;0.73;0.70;;;;;;;;;;5074343;28;20299;-64
2023/01/07 12:45:05;;;;;;;0.60;0.60;;;;;;;;;;5074226;28;20204;-63
2023/01/07 12:47:35;;;;;;;0.63;0.63;;;;;;;;;;5074458;28;20580;-63
2023/01/07 12:50:04;;;;;;;0.60;0.60;;;;;;;;;;5074405;28;20316;-63
2023/01/07 12:52:36;;;;;;;0.57;0.50;;;;;;;;;;5074040;28;20374;-63
2023/01/07 12:55:05;;;;;;;0.60;0.60;;;;;;;;;;5073244;28;20208;-63
2023/01/07 12:57:35;;;;;;;0.68;0.68;;;;;;;;;;5074366;28;20295;-63
2023/01/07 13:00:07;;;;;;;0.50;0.50;;;;;;;;;;5072975;28;20446;-63
2023/01/07 13:02:38;;;;;;;0.77;0.70;;;;;;;;;;5073132;28;20204;-64
2023/01/07 13:05:11;;;;;;;0.90;0.60;;;;;;;;;;5073145;28;20231;-64
2023/01/07 13:07:43;;;;;;;0.70;0.60;;;;;;;;;;5073837;28;20211;-64
2023/01/07 13:10:15;;;;;;;0.75;0.60;;;;;;;;;;5072198;28;20211;-64
2023/01/07 13:12:45;;;;;;;0.63;0.63;;;;;;;;;;5071779;28;20589;-64
2023/01/07 13:15:20;;;;;;;1.90;0.68;;;;;;;;;;5072590;28;20204;-63
2023/01/07 13:17:48;;;;;;;0.60;0.50;;;;;;;;;;5073139;28;20204;-63
2023/01/07 13:20:17;;;;;;;0.57;0.57;;;;;;;;;;5073461;28;20200;-63
2023/01/07 13:22:46;;;;;;;0.60;0.60;;;;;;;;;;5073971;28;20204;-64
2023/01/07 13:25:21;;;;;;;0.70;0.70;;;;;;;;;;5074334;28;20560;-64
2023/01/07 13:28:08;;;;;;;0.77;0.70;;;;;;;;;;5072934;28;20207;-63
2023/01/07 13:30:40;;;;;;;0.70;0.70;;;;;;;;;;5071097;28;20261;-63
2023/01/07 13:33:12;;;;;;;0.70;0.70;;;;;;;;;;5073037;28;20708;-63
2023/01/07 13:35:50;;;;;;;0.55;0.55;;;;;;;;;;5073350;28;20239;-63
2023/01/07 13:38:26;;;;;;;1.13;0.65;;;;;;;;;;5073219;28;20210;-63
2023/01/07 13:41:06;;;;;;;0.50;0.50;;;;;;;;;;5073801;28;20211;-63
2023/01/07 13:43:49;;;;;;;0.50;0.50;;;;;;;;;;5072996;28;20214;-63
2023/01/07 13:46:19;;;;;;;0.70;0.70;;;;;;;;;;5074206;28;20307;-63
2023/01/07 13:48:48;;;;;;;0.80;0.80;;;;;;;;;;5073420;28;20204;-63
2023/01/07 13:51:16;;;;;;;0.63;0.63;;;;;;;;;;5072989;28;20299;-63
2023/01/07 13:53:46;;;;;;;1.48;0.80;;;;;;;;;;5071296;28;20232;-63
2023/01/07 13:56:29;;;;;;;0.80;0.80;;;;;;;;;;5073176;28;20214;-63
2023/01/07 13:58:59;;;;;;;0.90;0.90;;;;;;;;;;5057014;28;20212;-64
2023/01/07 14:01:27;;;;;;;0.82;0.82;;;;;;;;;;5073943;28;20297;-63
2023/01/07 14:03:55;;;;;;;0.80;0.80;;;;;;;;;;5072525;28;20201;-63
2023/01/07 14:06:43;;;;;;;0.85;0.85;;;;;;;;;;5072906;28;20205;-63
2023/01/07 14:09:14;;;;;;;0.70;0.70;;;;;;;;;;5072832;28;20204;-63
2023/01/07 14:11:49;;;;;;;0.82;0.80;;;;;;;;;;5074031;28;20212;-63
2023/01/07 14:14:21;;;;;;;1.05;0.68;;;;;;;;;;5077283;28;20319;-64
2023/01/07 14:16:53;;;;;;;1.05;0.80;;;;;;;;;;5076470;28;20415;-64
2023/01/07 14:19:27;;;;;;;0.75;0.75;;;;;;;;;;5075789;28;20204;-64
2023/01/07 14:22:00;;;;;;;0.98;0.80;;;;;;;;;;5075535;28;20304;-64
2023/01/07 14:24:36;;;;;;;0.88;0.80;;;;;;;;;;5076624;28;20196;-64
2023/01/07 14:27:11;;;;;;;1.00;0.90;;;;;;;;;;5076244;28;20242;-63
2023/01/07 14:29:45;;;;;;;1.15;0.90;;;;;;;;;;5076160;28;20204;-63
2023/01/07 14:32:14;;;;;;;0.73;0.73;;;;;;;;;;5075070;28;20298;-64
2023/01/07 14:34:42;;;;;;;0.80;0.80;;;;;;;;;;5075266;28;20220;-63
2023/01/07 14:37:29;;;;;;;0.80;0.80;;;;;;;;;;5075846;28;20479;-63
2023/01/07 14:39:56;;;;;;;1.52;0.80;;;;;;;;;;5075628;28;20579;-64
2023/01/07 14:42:29;;;;;;;0.80;0.80;;;;;;;;;;5076510;28;20230;-64
2023/01/07 14:44:57;;;;;;;0.80;0.80;;;;;;;;;;5075968;28;20230;-64
2023/01/07 14:47:43;;;;;;;0.90;0.90;;;;;;;;;;5074847;28;20204;-63
2023/01/07 14:50:19;;;;;;;1.73;0.90;;;;;;;;;;5073714;28;20210;-63
2023/01/07 14:53:00;;;;;;;0.75;0.75;;;;;;;;;;5075450;28;20215;-63
2023/01/07 14:55:39;;;;;;;1.00;0.90;;;;;;;;;;5076499;28;20226;-64
2023/01/07 14:58:15;;;;;;;0.93;0.90;;;;;;;;;;5075223;28;20211;-64
2023/01/07 15:00:58;;;;;;;1.25;0.85;;;;;;;;;;5075806;28;20206;-64
2023/01/07 15:03:34;;;;;;;1.00;0.82;;;;;;;;;;5059681;28;20269;-64